createdAt,value
2019-05-02T00:01:42.757Z,1.00
2019-05-02T00:04:12.356Z,1.00
2019-05-02T00:06:44.264Z,1.00
2019-05-02T00:09:13.349Z,1.80
2019-05-02T00:11:42.247Z,6.70
2019-05-02T00:14:11.593Z,19.80
2019-05-02T00:16:40.498Z,17.90
2019-05-02T00:19:13.979Z,14.40
2019-05-02T00:21:42.976Z,14.90
2019-05-02T00:24:11.942Z,12.40
2019-05-02T00:26:40.724Z,11.10
2019-05-02T00:29:09.591Z,4.80
2019-05-02T00:31:41.959Z,1.00
2019-05-02T00:34:09.003Z,1.00
2019-05-02T00:36:38.090Z,1.00
2019-05-02T00:39:09.590Z,4.90
2019-05-02T00:41:38.630Z,4.40
2019-05-02T00:44:10.969Z,6.40
2019-05-02T00:46:38.886Z,9.10
2019-05-02T00:49:07.667Z,16.30
2019-05-02T00:51:36.508Z,16.30
2019-05-02T00:54:05.348Z,20.60
2019-05-02T00:56:34.110Z,18.70
2019-05-02T00:59:07.452Z,22.40
2019-05-02T01:01:40.785Z,14.90
2019-05-02T01:04:11.168Z,11.70
2019-05-02T01:06:39.942Z,10.20
2019-05-02T01:09:11.150Z,8.70
2019-05-02T01:11:39.814Z,7.70
2019-05-02T01:14:08.560Z,5.30
2019-05-02T01:16:37.320Z,1.00
2019-05-02T01:19:06.067Z,1.00
2019-05-02T01:21:38.933Z,1.00
2019-05-02T01:24:05.344Z,1.00
2019-05-02T01:26:35.748Z,1.00
2019-05-02T01:29:24.888Z,1.00
2019-05-02T01:32:06.321Z,1.00
2019-05-02T01:34:36.720Z,1.00
2019-05-02T01:37:12.428Z,1.00
2019-05-02T01:39:42.831Z,1.00
2019-05-02T01:42:10.975Z,1.00
2019-05-02T01:44:39.770Z,1.00
2019-05-02T01:47:08.589Z,1.00
2019-05-02T01:49:37.409Z,1.00
2019-05-02T01:52:06.175Z,1.00
2019-05-02T01:54:35.031Z,1.00
2019-05-02T01:57:08.265Z,1.00
2019-05-02T01:59:35.164Z,1.00
2019-05-02T02:02:04.069Z,1.00
2019-05-02T02:04:32.853Z,1.00
2019-05-02T02:07:01.842Z,1.00
2019-05-02T02:09:30.642Z,1.00
2019-05-02T02:11:59.390Z,1.00
2019-05-02T02:14:28.138Z,1.00
2019-05-02T02:16:56.907Z,1.00
2019-05-02T02:19:27.293Z,1.00
2019-05-02T02:22:06.792Z,1.00
2019-05-02T02:24:38.468Z,1.00
2019-05-02T02:27:07.334Z,1.00
2019-05-02T02:29:39.131Z,1.00
2019-05-02T02:32:06.702Z,1.00
2019-05-02T02:34:35.524Z,1.00
2019-05-02T02:37:05.324Z,1.00
2019-05-02T02:39:35.101Z,1.00
2019-05-02T02:42:03.999Z,1.00
2019-05-02T02:44:40.033Z,1.00
2019-05-02T02:47:12.002Z,1.00
2019-05-02T02:49:37.743Z,1.00
2019-05-02T02:52:06.906Z,1.00
2019-05-02T02:54:36.622Z,1.00
2019-05-02T02:57:06.386Z,1.00
2019-05-02T02:59:35.145Z,1.00
2019-05-02T03:02:10.165Z,1.00
2019-05-02T03:04:34.511Z,1.00
2019-05-02T03:07:03.357Z,1.00
2019-05-02T03:09:32.183Z,1.00
2019-05-02T03:12:18.576Z,1.00
2019-05-02T03:14:49.428Z,1.00
2019-05-02T03:17:20.590Z,1.00
2019-05-02T03:19:54.206Z,1.00
2019-05-02T03:22:19.742Z,1.00
2019-05-02T03:24:48.485Z,1.00
2019-05-02T03:27:17.272Z,1.00
2019-05-02T03:29:46.025Z,1.00
2019-05-02T03:32:30.151Z,1.00
2019-05-02T03:34:48.135Z,1.00
2019-05-02T03:37:16.032Z,1.00
2019-05-02T03:39:49.403Z,1.00
2019-05-02T03:42:15.290Z,1.00
2019-05-02T03:44:54.949Z,1.00
2019-05-02T03:47:14.767Z,1.00
2019-05-02T03:49:48.644Z,1.00
2019-05-02T03:52:14.699Z,1.00
2019-05-02T03:54:49.963Z,1.00
2019-05-02T03:57:14.462Z,1.00
2019-05-02T03:59:43.689Z,1.00
2019-05-02T04:02:14.005Z,1.00
2019-05-02T04:04:43.692Z,1.00
2019-05-02T04:07:12.820Z,1.00
2019-05-02T04:09:42.570Z,1.00
2019-05-02T04:12:18.290Z,1.00
2019-05-02T04:14:42.968Z,1.00
2019-05-02T04:17:11.911Z,1.00
2019-05-02T04:19:41.028Z,1.00
2019-05-02T04:22:11.928Z,1.00
2019-05-02T04:24:40.520Z,1.00
2019-05-02T04:27:09.719Z,1.00
2019-05-02T04:29:38.585Z,99.90
2019-05-02T04:32:11.564Z,99.90
2019-05-02T04:34:37.991Z,99.90
2019-05-02T04:37:06.808Z,99.90
2019-05-02T04:39:38.845Z,99.90
2019-05-02T04:42:13.321Z,99.90
2019-05-02T04:44:47.874Z,99.90
2019-05-02T04:47:16.926Z,99.90
2019-05-02T04:49:39.205Z,97.80
2019-05-02T04:52:12.302Z,99.90
2019-05-02T04:54:39.051Z,99.90
2019-05-02T04:57:08.477Z,99.90
2019-05-02T04:59:39.456Z,99.90
2019-05-02T05:02:09.282Z,99.90
2019-05-02T05:04:41.936Z,99.90
2019-05-02T05:07:09.512Z,37.20
2019-05-02T05:09:40.095Z,16.00
2019-05-02T05:12:08.944Z,1.00
2019-05-02T05:14:42.264Z,1.00
2019-05-02T05:17:08.203Z,1.00
2019-05-02T05:19:37.453Z,1.00
2019-05-02T05:22:08.796Z,1.00
2019-05-02T05:24:42.171Z,1.00
2019-05-02T05:27:13.372Z,1.00
2019-05-02T05:29:39.293Z,1.00
2019-05-02T05:32:10.198Z,1.00
2019-05-02T05:34:38.701Z,1.00
2019-05-02T05:37:09.509Z,1.00
2019-05-02T05:39:38.193Z,1.00
2019-05-02T05:42:10.389Z,92.30
2019-05-02T05:44:39.906Z,76.00
2019-05-02T05:47:12.063Z,99.80
2019-05-02T05:49:39.382Z,99.90
2019-05-02T05:52:08.442Z,99.90
2019-05-02T05:54:38.402Z,99.90
2019-05-02T05:57:07.768Z,99.90
2019-05-02T05:59:37.984Z,99.90
2019-05-02T06:02:13.252Z,99.90
2019-05-02T06:04:38.764Z,99.90
2019-05-02T06:07:07.675Z,99.90
2019-05-02T06:09:36.521Z,99.90
2019-05-02T06:12:05.388Z,99.90
2019-05-02T06:14:34.743Z,99.90
2019-05-02T06:17:03.622Z,99.90
2019-05-02T06:19:32.414Z,99.90
2019-05-02T06:22:01.181Z,99.90
2019-05-02T06:24:29.952Z,99.90
2019-05-02T06:26:58.725Z,99.90
2019-05-02T06:29:27.468Z,99.90
2019-05-02T06:31:59.301Z,99.90
2019-05-02T06:34:28.052Z,99.90
2019-05-02T06:36:57.730Z,99.90
2019-05-02T06:39:27.165Z,99.90
2019-05-02T06:41:58.580Z,99.90
2019-05-02T06:44:27.497Z,99.90
2019-05-02T06:46:59.353Z,99.90
2019-05-02T06:49:26.765Z,99.90
2019-05-02T06:51:56.264Z,99.90
2019-05-02T06:54:26.018Z,99.90
2019-05-02T06:56:54.874Z,99.90
2019-05-02T06:59:23.656Z,95.90
2019-05-02T07:01:57.417Z,99.90
2019-05-02T07:04:25.043Z,97.40
2019-05-02T07:06:58.631Z,26.10
2019-05-02T07:09:25.153Z,52.50
2019-05-02T07:11:57.443Z,1.00
2019-05-02T07:14:25.660Z,99.90
2019-05-02T07:16:58.829Z,99.90
2019-05-02T07:19:31.960Z,99.90
2019-05-02T07:22:04.291Z,99.90
2019-05-02T07:24:32.637Z,99.90
2019-05-02T07:27:02.402Z,48.10
2019-05-02T07:29:31.459Z,99.90
2019-05-02T07:32:00.229Z,31.40
2019-05-02T07:34:29.042Z,57.40
2019-05-02T07:36:57.828Z,99.90
2019-05-02T07:39:26.925Z,99.90
2019-05-02T07:41:55.813Z,99.90
2019-05-02T07:44:27.192Z,99.90
2019-05-02T07:47:01.965Z,1.00
2019-05-02T07:49:32.259Z,99.90
2019-05-02T07:51:58.944Z,1.00
2019-05-02T07:54:27.760Z,99.90
2019-05-02T07:56:56.545Z,99.90
2019-05-02T07:59:25.381Z,1.00
2019-05-02T08:01:54.189Z,1.00
2019-05-02T08:04:23.259Z,1.00
2019-05-02T08:06:52.113Z,1.00
2019-05-02T08:09:20.956Z,1.00
2019-05-02T08:11:49.906Z,1.00
2019-05-02T08:14:18.730Z,1.00
2019-05-02T08:16:47.543Z,1.00
2019-05-02T08:19:16.301Z,1.00
2019-05-02T08:21:45.044Z,1.00
2019-05-02T08:24:13.808Z,1.00
2019-05-02T08:26:44.268Z,1.00
2019-05-02T08:29:13.400Z,1.00
2019-05-02T08:31:42.152Z,1.00
2019-05-02T08:34:15.106Z,1.00
2019-05-02T08:36:41.393Z,1.00
2019-05-02T08:39:10.136Z,1.00
2019-05-02T08:41:38.931Z,1.00
2019-05-02T08:44:07.738Z,1.00
2019-05-02T08:46:36.502Z,1.00
2019-05-02T08:49:05.278Z,1.00
2019-05-02T08:51:34.124Z,1.00
2019-05-02T08:54:02.864Z,1.00
2019-05-02T08:56:31.633Z,1.00
2019-05-02T08:59:00.412Z,1.00
2019-05-02T09:01:35.458Z,99.90
2019-05-02T09:04:00.290Z,99.90
2019-05-02T09:06:29.123Z,99.90
2019-05-02T09:08:57.912Z,99.90
2019-05-02T09:11:26.722Z,99.90
2019-05-02T09:13:59.043Z,99.90
2019-05-02T09:16:30.450Z,99.90
2019-05-02T09:18:58.306Z,99.90
2019-05-02T09:21:34.141Z,99.90
2019-05-02T09:23:57.610Z,99.90
2019-05-02T09:26:35.534Z,99.90
2019-05-02T09:29:01.683Z,66.40
2019-05-02T09:31:27.474Z,99.90
2019-05-02T09:33:56.313Z,99.90
2019-05-02T09:36:25.105Z,99.90
2019-05-02T09:38:57.451Z,27.30
2019-05-02T09:41:26.843Z,1.00
2019-05-02T09:43:54.849Z,99.90
2019-05-02T09:46:23.662Z,99.90
2019-05-02T09:48:52.511Z,1.00
2019-05-02T09:51:21.597Z,1.00
2019-05-02T09:53:52.367Z,99.90
2019-05-02T09:56:21.956Z,99.90
2019-05-02T09:58:55.295Z,99.90
2019-05-02T10:01:23.099Z,99.90
2019-05-02T10:03:52.006Z,99.90
2019-05-02T10:06:22.826Z,1.00
2019-05-02T10:08:52.001Z,1.00
2019-05-02T10:11:22.526Z,99.90
2019-05-02T10:13:52.777Z,68.10
2019-05-02T10:16:23.619Z,1.00
2019-05-02T10:18:52.773Z,99.90
2019-05-02T10:21:22.818Z,1.00
2019-05-02T10:23:58.904Z,1.00
2019-05-02T10:26:24.529Z,99.90
2019-05-02T10:28:53.502Z,1.00
2019-05-02T10:31:22.468Z,99.90
2019-05-02T10:33:52.904Z,1.00
2019-05-02T10:36:23.921Z,1.00
2019-05-02T10:38:54.915Z,1.00
2019-05-02T10:41:23.384Z,1.00
2019-05-02T10:43:56.612Z,1.00
2019-05-02T10:46:27.907Z,28.50
2019-05-02T10:48:56.419Z,1.00
2019-05-02T10:51:29.442Z,1.00
2019-05-02T10:53:58.184Z,1.00
2019-05-02T10:56:26.969Z,1.00
2019-05-02T10:58:55.724Z,1.00
2019-05-02T11:01:26.198Z,1.00
2019-05-02T11:03:56.618Z,99.90
2019-05-02T11:06:25.437Z,99.90
2019-05-02T11:08:54.222Z,1.00
2019-05-02T11:11:23.247Z,99.90
2019-05-02T11:14:08.423Z,99.90
2019-05-02T11:16:42.318Z,1.00
2019-05-02T11:19:13.256Z,99.90
2019-05-02T11:21:53.522Z,99.90
2019-05-02T11:24:14.380Z,36.00
2019-05-02T11:26:43.225Z,1.00
2019-05-02T11:29:12.208Z,1.00
2019-05-02T11:31:42.733Z,99.90
2019-05-02T11:34:12.330Z,99.90
2019-05-02T11:36:41.997Z,99.90
2019-05-02T11:39:17.541Z,1.00
2019-05-02T11:41:42.250Z,1.00
2019-05-02T11:44:12.139Z,99.90
2019-05-02T11:46:42.931Z,1.00
2019-05-02T11:49:12.213Z,99.90
2019-05-02T11:51:42.144Z,16.00
2019-05-02T11:54:12.928Z,51.20
2019-05-02T11:56:48.739Z,99.90
2019-05-02T11:59:14.802Z,99.90
2019-05-02T12:01:56.879Z,1.00
2019-05-02T12:04:16.864Z,1.00
2019-05-02T12:06:49.997Z,1.00
2019-05-02T12:09:16.457Z,99.90
2019-05-02T12:11:47.402Z,99.90
2019-05-02T12:14:15.747Z,1.00
2019-05-02T12:16:44.501Z,1.00
2019-05-02T12:19:14.905Z,1.00
2019-05-02T12:21:46.997Z,99.90
2019-05-02T12:24:15.920Z,1.00
2019-05-02T12:26:46.561Z,99.90
2019-05-02T12:29:15.521Z,99.90
2019-05-02T12:31:47.192Z,1.00
2019-05-02T12:34:14.791Z,1.00
2019-05-02T12:36:43.697Z,1.00
2019-05-02T12:39:12.679Z,1.00
2019-05-02T12:41:42.272Z,1.00
2019-05-02T12:44:11.816Z,1.00
2019-05-02T12:46:42.184Z,99.90
2019-05-02T12:49:22.630Z,3.30
2019-05-02T12:51:42.898Z,1.00
2019-05-02T12:54:12.421Z,99.90
2019-05-02T12:56:41.825Z,99.90
2019-05-02T12:59:11.850Z,1.00
2019-05-02T13:01:42.162Z,1.00
2019-05-02T13:04:12.922Z,1.00
2019-05-02T13:06:42.278Z,1.00
2019-05-02T13:09:12.658Z,75.00
2019-05-02T13:11:49.315Z,99.90
2019-05-02T13:14:20.021Z,1.00
2019-05-02T13:16:53.428Z,1.00
2019-05-02T13:19:19.924Z,1.00
2019-05-02T13:21:57.968Z,99.90
2019-05-02T13:24:29.194Z,1.00
2019-05-02T13:26:59.626Z,1.00
2019-05-02T13:29:26.579Z,1.00
2019-05-02T13:31:57.005Z,1.00
2019-05-02T13:34:43.995Z,1.00
2019-05-02T13:37:14.635Z,99.90
2019-05-02T13:39:53.905Z,99.90
2019-05-02T13:42:22.756Z,99.90
2019-05-02T13:45:09.222Z,99.90
2019-05-02T13:47:38.073Z,1.00
2019-05-02T13:50:08.224Z,99.90
2019-05-02T13:52:37.015Z,99.90
2019-05-02T13:55:09.376Z,1.00
2019-05-02T13:57:43.144Z,1.00
2019-05-02T14:00:09.556Z,1.00
2019-05-02T14:02:42.683Z,1.00
2019-05-02T14:05:14.924Z,23.80
2019-05-02T14:08:01.830Z,1.00
2019-05-02T14:10:39.272Z,99.90
2019-05-02T14:13:05.606Z,1.00
2019-05-02T14:15:36.067Z,99.90
2019-05-02T14:18:05.005Z,1.00
2019-05-02T14:20:33.755Z,1.00
2019-05-02T14:23:02.530Z,1.00
2019-05-02T14:25:32.110Z,1.00
2019-05-02T14:28:03.020Z,99.90
2019-05-02T14:30:39.454Z,99.90
2019-05-02T14:33:04.045Z,1.00
2019-05-02T14:35:36.310Z,1.00
2019-05-02T14:38:13.091Z,11.40
2019-05-02T14:40:46.396Z,99.90
2019-05-02T14:43:16.861Z,99.90
2019-05-02T14:45:45.649Z,1.00
2019-05-02T14:48:21.453Z,1.00
2019-05-02T14:50:48.251Z,1.00
2019-05-02T14:53:22.158Z,99.90
2019-05-02T14:55:49.175Z,99.90
2019-05-02T14:58:17.962Z,1.00
2019-05-02T15:00:48.390Z,1.00
2019-05-02T15:03:19.059Z,1.00
2019-05-02T15:05:47.656Z,1.00
2019-05-02T15:08:16.417Z,99.90
2019-05-02T15:10:52.590Z,99.90
2019-05-02T15:13:15.705Z,99.90
2019-05-02T15:15:44.455Z,99.90
2019-05-02T15:18:17.406Z,1.00
2019-05-02T15:20:43.662Z,1.00
2019-05-02T15:23:19.376Z,1.00
2019-05-02T15:25:47.061Z,1.00
2019-05-02T15:28:19.343Z,1.00
2019-05-02T15:30:50.110Z,1.00
2019-05-02T15:33:22.295Z,1.00
2019-05-02T15:35:57.366Z,1.00
2019-05-02T15:38:28.222Z,1.00
2019-05-02T15:40:59.128Z,1.00
2019-05-02T15:43:27.706Z,1.00
2019-05-02T15:45:56.699Z,99.90
2019-05-02T15:48:27.557Z,19.70
2019-05-02T15:51:00.017Z,1.00
2019-05-02T15:53:34.030Z,1.00
2019-05-02T15:56:02.813Z,1.00
2019-05-02T15:58:32.482Z,13.70
2019-05-02T16:01:04.924Z,1.00
2019-05-02T16:03:52.259Z,14.70
2019-05-02T16:06:26.847Z,99.90
2019-05-02T16:08:52.080Z,99.90
2019-05-02T16:11:22.913Z,99.90
2019-05-02T16:13:55.956Z,1.00
2019-05-02T16:16:23.158Z,1.00
2019-05-02T16:18:52.607Z,24.60
2019-05-02T16:21:30.639Z,1.00
2019-05-02T16:24:11.292Z,99.90
2019-05-02T16:26:44.899Z,99.90
2019-05-02T16:29:07.957Z,99.90
2019-05-02T16:31:38.415Z,1.00
2019-05-02T16:34:07.193Z,1.00
2019-05-02T16:36:37.554Z,1.00
2019-05-02T16:39:10.000Z,1.00
2019-05-02T16:41:41.326Z,1.00
2019-05-02T16:44:09.663Z,1.00
2019-05-02T16:46:38.432Z,1.00
2019-05-02T16:49:08.834Z,1.00
2019-05-02T16:51:37.689Z,1.00
2019-05-02T16:54:06.550Z,1.00
2019-05-02T16:56:36.970Z,1.00
2019-05-02T16:59:05.855Z,99.90
2019-05-02T17:01:34.609Z,99.90
2019-05-02T17:04:06.692Z,99.90
2019-05-02T17:06:35.537Z,99.90
2019-05-02T17:09:15.085Z,99.90
2019-05-02T17:11:45.598Z,99.90
2019-05-02T17:14:14.637Z,99.90
2019-05-02T17:16:47.156Z,99.90
2019-05-02T17:19:13.889Z,1.00
2019-05-02T17:21:53.153Z,99.90
2019-05-02T17:24:17.347Z,99.90
2019-05-02T17:26:43.855Z,1.00
2019-05-02T17:29:16.512Z,1.00
2019-05-02T17:31:43.108Z,1.00
2019-05-02T17:34:14.701Z,49.80
2019-05-02T17:36:42.758Z,1.00
2019-05-02T17:39:13.257Z,1.00
2019-05-02T17:41:45.607Z,1.00
2019-05-02T17:44:12.942Z,1.00
2019-05-02T17:46:43.041Z,1.00
2019-05-02T17:49:11.967Z,1.00
2019-05-02T17:52:05.255Z,1.00
2019-05-02T17:54:29.205Z,1.00
2019-05-02T17:56:59.212Z,1.00
2019-05-02T17:59:28.349Z,1.00
2019-05-02T18:01:58.436Z,1.00
2019-05-02T18:04:27.221Z,1.00
2019-05-02T18:06:55.993Z,1.00
2019-05-02T18:09:26.269Z,1.00
2019-05-02T18:11:55.369Z,1.00
2019-05-02T18:14:24.218Z,1.00
2019-05-02T18:16:55.566Z,1.00
2019-05-02T18:19:24.510Z,1.00
2019-05-02T18:21:53.556Z,1.00
2019-05-02T18:24:22.549Z,1.00
2019-05-02T18:26:51.725Z,1.00
2019-05-02T18:29:20.573Z,1.00
2019-05-02T18:31:49.396Z,1.00
2019-05-02T18:34:23.675Z,1.00
2019-05-02T18:36:48.665Z,1.00
2019-05-02T18:39:17.412Z,1.00
2019-05-02T18:41:46.515Z,1.00
2019-05-02T18:44:17.180Z,1.00
2019-05-02T18:46:45.764Z,1.00
2019-05-02T18:49:17.139Z,1.00
2019-05-02T18:51:48.273Z,1.00
2019-05-02T18:54:15.775Z,1.00
2019-05-02T18:56:50.126Z,1.00
2019-05-02T18:59:19.770Z,1.00
2019-05-02T19:01:47.414Z,1.00
2019-05-02T19:04:16.421Z,1.00
2019-05-02T19:06:45.190Z,1.00
2019-05-02T19:09:17.470Z,1.00
2019-05-02T19:11:44.452Z,1.00
2019-05-02T19:14:16.579Z,1.00
2019-05-02T19:16:43.730Z,1.00
2019-05-02T19:19:12.631Z,1.00
2019-05-02T19:21:41.504Z,1.00
2019-05-02T19:24:10.376Z,1.00
2019-05-02T19:26:41.563Z,1.00
2019-05-02T19:29:17.304Z,1.00
2019-05-02T19:31:46.528Z,1.00
2019-05-02T19:34:16.789Z,1.00
2019-05-02T19:36:45.860Z,1.00
2019-05-02T19:39:14.617Z,1.00
2019-05-02T19:41:43.889Z,1.00
2019-05-02T19:44:15.380Z,1.00
2019-05-02T19:46:44.275Z,1.00
2019-05-02T19:49:16.154Z,1.00
2019-05-02T19:51:43.590Z,1.00
2019-05-02T19:54:12.603Z,1.00
2019-05-02T19:56:46.017Z,1.00
2019-05-02T19:59:12.066Z,1.00
2019-05-02T20:01:40.919Z,1.00
2019-05-02T20:04:11.831Z,1.00
2019-05-02T20:06:41.812Z,1.00
2019-05-02T20:09:11.030Z,1.00
2019-05-02T20:11:39.858Z,1.00
2019-05-02T20:14:09.882Z,1.00
2019-05-02T20:16:45.784Z,1.00
2019-05-02T20:19:17.198Z,1.00
2019-05-02T20:21:46.021Z,1.00
2019-05-02T20:24:19.295Z,1.00
2019-05-02T20:26:46.720Z,1.00
2019-05-02T20:29:15.785Z,1.00
2019-05-02T20:31:44.525Z,1.00
2019-05-02T20:34:13.576Z,1.00
2019-05-02T20:36:42.627Z,1.00
2019-05-02T20:39:11.982Z,1.00
2019-05-02T20:41:41.926Z,1.00
2019-05-02T20:44:12.197Z,1.00
2019-05-02T20:46:42.082Z,1.00
2019-05-02T20:49:12.850Z,1.00
2019-05-02T20:51:42.387Z,19.20
2019-05-02T20:54:12.523Z,1.00
2019-05-02T20:56:42.702Z,12.50
2019-05-02T20:59:12.789Z,56.20
2019-05-02T21:01:42.862Z,84.40
2019-05-02T21:04:12.210Z,94.70
2019-05-02T21:06:44.090Z,99.90
2019-05-02T21:09:14.664Z,99.90
2019-05-02T21:11:45.066Z,99.90
2019-05-02T21:14:13.857Z,99.90
2019-05-02T21:16:42.668Z,99.90
2019-05-02T21:19:12.352Z,99.90
2019-05-02T21:21:42.704Z,99.90
2019-05-02T21:24:11.562Z,99.90
2019-05-02T21:26:42.024Z,99.90
2019-05-02T21:29:12.169Z,99.90
2019-05-02T21:31:42.580Z,99.90
2019-05-02T21:34:11.782Z,99.90
2019-05-02T21:36:42.423Z,99.90
2019-05-02T21:39:12.185Z,99.90
2019-05-02T21:41:42.383Z,99.90
2019-05-02T21:44:12.974Z,99.90
2019-05-02T21:46:42.347Z,99.90
2019-05-02T21:49:12.089Z,99.90
2019-05-02T21:51:51.902Z,99.90
2019-05-02T21:54:25.260Z,99.90
2019-05-02T21:57:02.650Z,99.90
2019-05-02T21:59:31.546Z,99.90
2019-05-02T22:02:02.421Z,99.90
2019-05-02T22:04:31.802Z,99.90
2019-05-02T22:07:00.629Z,99.90
2019-05-02T22:09:29.402Z,99.90
2019-05-02T22:11:58.146Z,93.80
2019-05-02T22:14:26.901Z,82.30
2019-05-02T22:16:55.670Z,64.10
2019-05-02T22:19:24.656Z,37.50
2019-05-02T22:21:53.666Z,36.30
2019-05-02T22:24:22.446Z,49.90
2019-05-02T22:26:52.661Z,58.40
2019-05-02T22:29:21.907Z,40.70
2019-05-02T22:31:54.265Z,34.30
2019-05-02T22:34:22.042Z,42.20
2019-05-02T22:36:53.928Z,43.10
2019-05-02T22:39:23.202Z,30.00
2019-05-02T22:41:52.592Z,19.10
2019-05-02T22:44:21.914Z,26.30
2019-05-02T22:46:52.100Z,21.60
2019-05-02T22:49:22.480Z,1.50
2019-05-02T22:51:51.407Z,1.00
2019-05-02T22:54:27.752Z,1.00
2019-05-02T22:56:52.096Z,4.40
2019-05-02T22:59:23.670Z,1.00
2019-05-02T23:01:52.741Z,1.00
2019-05-02T23:04:23.477Z,1.00
2019-05-02T23:06:52.906Z,1.00
2019-05-02T23:09:22.122Z,1.00
2019-05-02T23:11:51.844Z,1.00
2019-05-02T23:14:22.195Z,1.00
2019-05-02T23:16:52.757Z,1.00
2019-05-02T23:19:23.008Z,1.00
2019-05-02T23:21:52.609Z,1.00
2019-05-02T23:24:35.999Z,1.00
2019-05-02T23:27:13.329Z,1.00
2019-05-02T23:29:42.514Z,99.90
2019-05-02T23:32:11.376Z,99.90
2019-05-02T23:34:41.787Z,99.90
2019-05-02T23:37:11.965Z,99.90
2019-05-02T23:39:41.746Z,99.90
2019-05-02T23:42:10.654Z,52.10
2019-05-02T23:44:39.388Z,99.90
2019-05-02T23:47:08.165Z,1.00
2019-05-02T23:49:36.925Z,1.00
2019-05-02T23:52:05.681Z,1.00
2019-05-02T23:54:34.424Z,1.00
2019-05-02T23:57:03.176Z,1.00
2019-05-02T23:59:31.920Z,1.00
